LJLJ/LJU METAR and TAF weather

Enter ICAO airport designator
Station Type Date Time Source
LJLJ METAR 2020/09/22 21:30 UTC NOAA

LJLJ 222130Z 28002KT 6000 FEW002 SCT004 BKN050 16/16 Q1013 NOSIG


Station Type Date Time Source
LJLJ Decoded METAR 2020/09/22 21:30 UTC NOAA

Ljubljana / Brnik, Slovenia (LJLJ) 46-13N 014-29E 362M
Sep 22, 2020 - 05:30 PM EDT / 2020.09.22 2130 UTC
Wind: from the W (280 degrees) at 2 MPH (2 KT):0
Visibility: 3 mile(s):0
Sky conditions: mostly cloudy
Temperature: 60 F (16 C)
Dew Point: 60 F (16 C)
Relative Humidity: 100%
Pressure (altimeter): 29.91 in. Hg (1013 hPa)
ob: LJLJ 222130Z 28002KT 6000 FEW002 SCT004 BKN050 16/16 Q1013 NOSIG
cycle: 21

Station Type Date Time Source
LJLJ TAF 2020/09/22 18:05 UTC NOAA

TAF LJLJ 221700Z 2218/2318 VRB02KT 9999 FEW030 SCT050 PROB40
TEMPO 2218/2315 SHRA SCT040TCU BKN045 PROB30
TEMPO 2308/2312 VRB15KT 5000 TSRA SCT030CB BKN040

Example: see airport list